sensor_id;sensor_type;location;lat;lon;timestamp;P1;durP1;ratioP1;P2;durP2;ratioP2
44981;SDS011;30716;41.740;-70.400;2023-06-04T00:01:06;3.60;;;1.00;;
44981;SDS011;30716;41.740;-70.400;2023-06-04T00:03:33;2.53;;;0.82;;
44981;SDS011;30716;41.740;-70.400;2023-06-04T00:06:00;2.80;;;1.10;;
44981;SDS011;30716;41.740;-70.400;2023-06-04T00:08:26;5.28;;;1.20;;
44981;SDS011;30716;41.740;-70.400;2023-06-04T00:10:52;3.53;;;1.42;;
44981;SDS011;30716;41.740;-70.400;2023-06-04T00:13:18;2.78;;;0.80;;
44981;SDS011;30716;41.740;-70.400;2023-06-04T00:15:45;3.25;;;1.20;;
44981;SDS011;30716;41.740;-70.400;2023-06-04T00:18:11;2.15;;;0.90;;
44981;SDS011;30716;41.740;-70.400;2023-06-04T00:20:38;2.38;;;1.52;;
44981;SDS011;30716;41.740;-70.400;2023-06-04T00:23:05;3.90;;;0.73;;
44981;SDS011;30716;41.740;-70.400;2023-06-04T00:25:31;1.60;;;0.63;;
44981;SDS011;30716;41.740;-70.400;2023-06-04T00:27:57;3.80;;;0.93;;
44981;SDS011;30716;41.740;-70.400;2023-06-04T00:30:23;3.97;;;0.85;;
44981;SDS011;30716;41.740;-70.400;2023-06-04T00:32:50;2.70;;;0.60;;
44981;SDS011;30716;41.740;-70.400;2023-06-04T00:35:16;3.03;;;1.20;;
44981;SDS011;30716;41.740;-70.400;2023-06-04T00:37:42;4.40;;;1.02;;
44981;SDS011;30716;41.740;-70.400;2023-06-04T00:40:08;2.28;;;0.70;;
44981;SDS011;30716;41.740;-70.400;2023-06-04T00:42:35;2.10;;;0.63;;
44981;SDS011;30716;41.740;-70.400;2023-06-04T00:45:03;3.28;;;1.20;;
44981;SDS011;30716;41.740;-70.400;2023-06-04T00:47:31;2.80;;;0.80;;
44981;SDS011;30716;41.740;-70.400;2023-06-04T00:49:57;2.15;;;0.75;;
44981;SDS011;30716;41.740;-70.400;2023-06-04T00:52:23;2.45;;;0.80;;
44981;SDS011;30716;41.740;-70.400;2023-06-04T00:54:51;3.10;;;0.90;;
44981;SDS011;30716;41.740;-70.400;2023-06-04T00:57:20;2.00;;;0.70;;
44981;SDS011;30716;41.740;-70.400;2023-06-04T00:59:47;3.33;;;0.95;;
44981;SDS011;30716;41.740;-70.400;2023-06-04T01:02:21;4.60;;;0.80;;
44981;SDS011;30716;41.740;-70.400;2023-06-04T01:05:03;2.90;;;0.80;;
44981;SDS011;30716;41.740;-70.400;2023-06-04T01:07:40;2.25;;;0.63;;
44981;SDS011;30716;41.740;-70.400;2023-06-04T01:10:12;3.03;;;0.90;;
44981;SDS011;30716;41.740;-70.400;2023-06-04T01:12:40;3.13;;;0.90;;
44981;SDS011;30716;41.740;-70.400;2023-06-04T01:15:07;0.93;;;0.55;;
44981;SDS011;30716;41.740;-70.400;2023-06-04T01:17:42;2.50;;;1.00;;
44981;SDS011;30716;41.740;-70.400;2023-06-04T01:25:33;2.85;;;0.85;;
44981;SDS011;30716;41.740;-70.400;2023-06-04T01:28:12;1.98;;;0.52;;
44981;SDS011;30716;41.740;-70.400;2023-06-04T01:30:42;1.95;;;0.70;;
44981;SDS011;30716;41.740;-70.400;2023-06-04T01:33:15;3.15;;;1.23;;
44981;SDS011;30716;41.740;-70.400;2023-06-04T01:35:47;3.60;;;0.85;;
44981;SDS011;30716;41.740;-70.400;2023-06-04T01:38:13;2.20;;;0.98;;
44981;SDS011;30716;41.740;-70.400;2023-06-04T01:40:40;3.78;;;0.93;;
44981;SDS011;30716;41.740;-70.400;2023-06-04T01:43:06;2.40;;;0.75;;
44981;SDS011;30716;41.740;-70.400;2023-06-04T01:45:34;5.28;;;1.00;;
44981;SDS011;30716;41.740;-70.400;2023-06-04T01:48:01;1.67;;;0.60;;
44981;SDS011;30716;41.740;-70.400;2023-06-04T01:50:28;1.33;;;0.52;;
44981;SDS011;30716;41.740;-70.400;2023-06-04T01:52:55;1.25;;;0.52;;
44981;SDS011;30716;41.740;-70.400;2023-06-04T01:55:22;1.90;;;0.82;;
44981;SDS011;30716;41.740;-70.400;2023-06-04T01:57:50;3.75;;;1.48;;
44981;SDS011;30716;41.740;-70.400;2023-06-04T02:00:19;2.45;;;0.77;;
44981;SDS011;30716;41.740;-70.400;2023-06-04T02:02:45;2.85;;;0.95;;
44981;SDS011;30716;41.740;-70.400;2023-06-04T02:05:15;1.55;;;0.60;;
44981;SDS011;30716;41.740;-70.400;2023-06-04T02:07:42;2.38;;;0.70;;
44981;SDS011;30716;41.740;-70.400;2023-06-04T02:10:10;1.92;;;0.73;;
44981;SDS011;30716;41.740;-70.400;2023-06-04T02:12:38;3.80;;;0.95;;
44981;SDS011;30716;41.740;-70.400;2023-06-04T02:15:06;2.65;;;0.80;;
44981;SDS011;30716;41.740;-70.400;2023-06-04T02:17:35;2.80;;;0.80;;
44981;SDS011;30716;41.740;-70.400;2023-06-04T02:20:06;2.67;;;0.60;;
44981;SDS011;30716;41.740;-70.400;2023-06-04T02:22:35;2.88;;;0.75;;
44981;SDS011;30716;41.740;-70.400;2023-06-04T02:25:01;2.17;;;0.57;;
44981;SDS011;30716;41.740;-70.400;2023-06-04T02:27:27;2.53;;;0.80;;
44981;SDS011;30716;41.740;-70.400;2023-06-04T02:29:54;3.42;;;0.75;;
44981;SDS011;30716;41.740;-70.400;2023-06-04T02:32:20;2.88;;;0.90;;
44981;SDS011;30716;41.740;-70.400;2023-06-04T02:34:46;2.67;;;0.80;;
44981;SDS011;30716;41.740;-70.400;2023-06-04T02:37:14;0.90;;;0.52;;
44981;SDS011;30716;41.740;-70.400;2023-06-04T02:39:40;1.75;;;0.50;;
44981;SDS011;30716;41.740;-70.400;2023-06-04T02:42:07;3.90;;;0.80;;
44981;SDS011;30716;41.740;-70.400;2023-06-04T02:44:33;3.85;;;1.13;;
44981;SDS011;30716;41.740;-70.400;2023-06-04T02:46:59;3.25;;;1.10;;
44981;SDS011;30716;41.740;-70.400;2023-06-04T02:49:25;2.17;;;0.50;;
44981;SDS011;30716;41.740;-70.400;2023-06-04T02:51:51;2.70;;;0.95;;
44981;SDS011;30716;41.740;-70.400;2023-06-04T02:54:18;2.05;;;0.65;;
44981;SDS011;30716;41.740;-70.400;2023-06-04T02:56:44;2.85;;;0.60;;
44981;SDS011;30716;41.740;-70.400;2023-06-04T02:59:10;2.88;;;0.88;;
44981;SDS011;30716;41.740;-70.400;2023-06-04T03:01:37;3.65;;;0.80;;
44981;SDS011;30716;41.740;-70.400;2023-06-04T03:04:03;2.65;;;0.90;;
44981;SDS011;30716;41.740;-70.400;2023-06-04T03:06:30;2.65;;;0.65;;
44981;SDS011;30716;41.740;-70.400;2023-06-04T03:08:59;2.33;;;0.68;;
44981;SDS011;30716;41.740;-70.400;2023-06-04T03:11:27;1.13;;;0.47;;
44981;SDS011;30716;41.740;-70.400;2023-06-04T03:13:53;2.05;;;0.82;;
44981;SDS011;30716;41.740;-70.400;2023-06-04T03:16:20;1.98;;;0.60;;
44981;SDS011;30716;41.740;-70.400;2023-06-04T03:18:47;2.15;;;0.70;;
44981;SDS011;30716;41.740;-70.400;2023-06-04T03:21:13;2.35;;;0.75;;
44981;SDS011;30716;41.740;-70.400;2023-06-04T10:02:36;1.10;;;0.68;;
44981;SDS011;30716;41.740;-70.400;2023-06-04T10:05:03;1.30;;;0.43;;
44981;SDS011;30716;41.740;-70.400;2023-06-04T10:07:34;2.22;;;0.40;;
44981;SDS011;30716;41.740;-70.400;2023-06-04T10:10:02;1.80;;;0.40;;
44981;SDS011;30716;41.740;-70.400;2023-06-04T10:12:29;1.17;;;0.52;;
44981;SDS011;30716;41.740;-70.400;2023-06-04T10:15:05;1.70;;;0.50;;
44981;SDS011;30716;41.740;-70.400;2023-06-04T10:17:34;1.60;;;0.55;;
44981;SDS011;30716;41.740;-70.400;2023-06-04T10:20:02;0.63;;;0.30;;
44981;SDS011;30716;41.740;-70.400;2023-06-04T10:22:34;0.95;;;0.25;;
44981;SDS011;30716;41.740;-70.400;2023-06-04T10:25:01;1.50;;;0.30;;
44981;SDS011;30716;41.740;-70.400;2023-06-04T10:27:30;0.85;;;0.25;;
44981;SDS011;30716;41.740;-70.400;2023-06-04T10:29:57;0.95;;;0.73;;
44981;SDS011;30716;41.740;-70.400;2023-06-04T10:32:27;1.08;;;0.40;;
44981;SDS011;30716;41.740;-70.400;2023-06-04T10:34:56;0.47;;;0.30;;
44981;SDS011;30716;41.740;-70.400;2023-06-04T10:37:24;0.30;;;0.15;;
44981;SDS011;30716;41.740;-70.400;2023-06-04T10:39:54;1.45;;;0.40;;
44981;SDS011;30716;41.740;-70.400;2023-06-04T10:42:22;0.90;;;0.20;;
44981;SDS011;30716;41.740;-70.400;2023-06-04T10:44:49;1.10;;;0.43;;
44981;SDS011;30716;41.740;-70.400;2023-06-04T10:47:26;0.88;;;0.25;;
44981;SDS011;30716;41.740;-70.400;2023-06-04T10:50:09;1.27;;;0.57;;
44981;SDS011;30716;41.740;-70.400;2023-06-04T10:52:37;1.75;;;0.40;;
44981;SDS011;30716;41.740;-70.400;2023-06-04T10:55:07;0.75;;;0.20;;
44981;SDS011;30716;41.740;-70.400;2023-06-04T10:57:34;0.73;;;0.15;;
44981;SDS011;30716;41.740;-70.400;2023-06-04T11:00:01;0.43;;;0.20;;
44981;SDS011;30716;41.740;-70.400;2023-06-04T11:02:31;1.38;;;0.40;;
44981;SDS011;30716;41.740;-70.400;2023-06-04T11:04:58;1.80;;;0.25;;
44981;SDS011;30716;41.740;-70.400;2023-06-04T11:07:40;0.82;;;0.30;;
44981;SDS011;30716;41.740;-70.400;2023-06-04T11:10:12;1.23;;;0.30;;
44981;SDS011;30716;41.740;-70.400;2023-06-04T11:12:46;0.55;;;0.30;;
44981;SDS011;30716;41.740;-70.400;2023-06-04T11:15:14;1.00;;;0.20;;
44981;SDS011;30716;41.740;-70.400;2023-06-04T11:17:54;0.93;;;0.30;;
44981;SDS011;30716;41.740;-70.400;2023-06-04T11:20:24;1.23;;;0.40;;
44981;SDS011;30716;41.740;-70.400;2023-06-04T11:22:57;1.55;;;0.40;;
44981;SDS011;30716;41.740;-70.400;2023-06-04T11:25:29;1.02;;;0.15;;
44981;SDS011;30716;41.740;-70.400;2023-06-04T11:27:58;1.25;;;0.32;;
44981;SDS011;30716;41.740;-70.400;2023-06-04T11:30:27;0.60;;;0.32;;
44981;SDS011;30716;41.740;-70.400;2023-06-04T11:33:00;1.55;;;0.30;;
44981;SDS011;30716;41.740;-70.400;2023-06-04T11:35:30;1.85;;;0.40;;
44981;SDS011;30716;41.740;-70.400;2023-06-04T11:38:05;0.45;;;0.17;;
44981;SDS011;30716;41.740;-70.400;2023-06-04T11:40:31;1.48;;;0.30;;
44981;SDS011;30716;41.740;-70.400;2023-06-04T11:42:57;1.40;;;0.30;;
44981;SDS011;30716;41.740;-70.400;2023-06-04T11:45:24;1.13;;;0.47;;
44981;SDS011;30716;41.740;-70.400;2023-06-04T11:47:53;0.50;;;0.10;;
44981;SDS011;30716;41.740;-70.400;2023-06-04T11:50:26;1.45;;;0.40;;
44981;SDS011;30716;41.740;-70.400;2023-06-04T11:52:55;1.42;;;0.43;;
44981;SDS011;30716;41.740;-70.400;2023-06-04T11:55:21;1.52;;;0.28;;
44981;SDS011;30716;41.740;-70.400;2023-06-04T11:57:48;1.70;;;0.40;;
44981;SDS011;30716;41.740;-70.400;2023-06-04T12:00:16;1.52;;;0.30;;
44981;SDS011;30716;41.740;-70.400;2023-06-04T12:05:20;1.10;;;0.30;;
44981;SDS011;30716;41.740;-70.400;2023-06-04T12:07:50;1.05;;;0.10;;
44981;SDS011;30716;41.740;-70.400;2023-06-04T12:10:17;0.95;;;0.30;;
44981;SDS011;30716;41.740;-70.400;2023-06-04T12:12:44;2.08;;;0.50;;
44981;SDS011;30716;41.740;-70.400;2023-06-04T12:15:11;1.27;;;0.30;;
44981;SDS011;30716;41.740;-70.400;2023-06-04T12:17:48;0.60;;;0.20;;
44981;SDS011;30716;41.740;-70.400;2023-06-04T12:20:36;0.50;;;0.20;;
44981;SDS011;30716;41.740;-70.400;2023-06-04T12:23:04;0.55;;;0.20;;
44981;SDS011;30716;41.740;-70.400;2023-06-04T12:25:32;2.25;;;0.30;;
44981;SDS011;30716;41.740;-70.400;2023-06-04T12:27:59;0.85;;;0.30;;
44981;SDS011;30716;41.740;-70.400;2023-06-04T12:30:37;0.13;;;0.10;;
44981;SDS011;30716;41.740;-70.400;2023-06-04T12:33:05;1.02;;;0.50;;
44981;SDS011;30716;41.740;-70.400;2023-06-04T12:35:32;1.17;;;0.50;;
44981;SDS011;30716;41.740;-70.400;2023-06-04T12:38:03;1.13;;;0.30;;
44981;SDS011;30716;41.740;-70.400;2023-06-04T12:40:30;2.03;;;0.40;;
44981;SDS011;30716;41.740;-70.400;2023-06-04T12:42:56;0.50;;;0.10;;
44981;SDS011;30716;41.740;-70.400;2023-06-04T12:45:23;1.38;;;0.30;;
44981;SDS011;30716;41.740;-70.400;2023-06-04T12:47:49;2.75;;;0.38;;
44981;SDS011;30716;41.740;-70.400;2023-06-04T12:50:15;0.80;;;0.30;;
44981;SDS011;30716;41.740;-70.400;2023-06-04T12:52:43;1.52;;;0.30;;
44981;SDS011;30716;41.740;-70.400;2023-06-04T12:55:09;0.95;;;0.25;;
44981;SDS011;30716;41.740;-70.400;2023-06-04T12:57:36;1.85;;;0.32;;
44981;SDS011;30716;41.740;-70.400;2023-06-04T13:00:02;1.13;;;0.60;;
44981;SDS011;30716;41.740;-70.400;2023-06-04T13:02:31;1.42;;;0.40;;
44981;SDS011;30716;41.740;-70.400;2023-06-04T13:04:57;1.50;;;0.30;;
44981;SDS011;30716;41.740;-70.400;2023-06-04T13:07:23;1.95;;;0.52;;
44981;SDS011;30716;41.740;-70.400;2023-06-04T13:09:49;3.03;;;0.35;;
44981;SDS011;30716;41.740;-70.400;2023-06-04T13:12:15;0.68;;;0.20;;
44981;SDS011;30716;41.740;-70.400;2023-06-04T13:14:41;1.02;;;0.10;;
44981;SDS011;30716;41.740;-70.400;2023-06-04T13:17:08;0.40;;;0.20;;
44981;SDS011;30716;41.740;-70.400;2023-06-04T13:19:35;1.83;;;0.40;;
44981;SDS011;30716;41.740;-70.400;2023-06-04T13:22:01;1.95;;;0.40;;
44981;SDS011;30716;41.740;-70.400;2023-06-04T13:24:27;1.48;;;0.30;;
44981;SDS011;30716;41.740;-70.400;2023-06-04T13:26:53;0.80;;;0.32;;
44981;SDS011;30716;41.740;-70.400;2023-06-04T13:29:21;1.10;;;0.20;;
44981;SDS011;30716;41.740;-70.400;2023-06-04T13:31:48;0.60;;;0.32;;
44981;SDS011;30716;41.740;-70.400;2023-06-04T13:34:15;0.82;;;0.22;;
44981;SDS011;30716;41.740;-70.400;2023-06-04T13:36:41;1.08;;;0.40;;
44981;SDS011;30716;41.740;-70.400;2023-06-04T13:39:08;0.88;;;0.38;;
44981;SDS011;30716;41.740;-70.400;2023-06-04T13:41:34;2.03;;;0.55;;
44981;SDS011;30716;41.740;-70.400;2023-06-04T13:44:00;1.55;;;0.30;;
44981;SDS011;30716;41.740;-70.400;2023-06-04T13:46:26;0.77;;;0.20;;
44981;SDS011;30716;41.740;-70.400;2023-06-04T13:48:52;1.23;;;0.50;;
44981;SDS011;30716;41.740;-70.400;2023-06-04T13:51:18;1.00;;;0.30;;
44981;SDS011;30716;41.740;-70.400;2023-06-04T13:53:44;2.92;;;0.45;;
44981;SDS011;30716;41.740;-70.400;2023-06-04T13:56:11;1.83;;;0.30;;
44981;SDS011;30716;41.740;-70.400;2023-06-04T13:58:37;1.55;;;0.30;;
44981;SDS011;30716;41.740;-70.400;2023-06-04T14:01:04;1.20;;;0.25;;
44981;SDS011;30716;41.740;-70.400;2023-06-04T14:03:30;0.73;;;0.30;;
44981;SDS011;30716;41.740;-70.400;2023-06-04T14:05:57;1.00;;;0.40;;
44981;SDS011;30716;41.740;-70.400;2023-06-04T14:08:23;1.15;;;0.40;;
44981;SDS011;30716;41.740;-70.400;2023-06-04T14:10:50;0.68;;;0.20;;
44981;SDS011;30716;41.740;-70.400;2023-06-04T14:13:17;1.08;;;0.40;;
44981;SDS011;30716;41.740;-70.400;2023-06-04T14:15:43;1.92;;;0.50;;
44981;SDS011;30716;41.740;-70.400;2023-06-04T14:18:09;0.95;;;0.30;;
44981;SDS011;30716;41.740;-70.400;2023-06-04T14:20:35;0.93;;;0.22;;
44981;SDS011;30716;41.740;-70.400;2023-06-04T14:23:01;1.02;;;0.30;;
44981;SDS011;30716;41.740;-70.400;2023-06-04T14:25:28;0.90;;;0.30;;
44981;SDS011;30716;41.740;-70.400;2023-06-04T14:27:54;1.20;;;0.47;;
44981;SDS011;30716;41.740;-70.400;2023-06-04T14:30:21;2.15;;;0.40;;
44981;SDS011;30716;41.740;-70.400;2023-06-04T14:32:47;1.15;;;0.30;;
44981;SDS011;30716;41.740;-70.400;2023-06-04T14:35:13;1.88;;;1.02;;
44981;SDS011;30716;41.740;-70.400;2023-06-04T14:37:40;0.47;;;0.30;;
44981;SDS011;30716;41.740;-70.400;2023-06-04T14:40:06;0.57;;;0.17;;
44981;SDS011;30716;41.740;-70.400;2023-06-04T14:42:33;1.83;;;0.20;;
44981;SDS011;30716;41.740;-70.400;2023-06-04T14:44:59;0.60;;;0.28;;
44981;SDS011;30716;41.740;-70.400;2023-06-04T14:47:27;0.90;;;0.30;;
44981;SDS011;30716;41.740;-70.400;2023-06-04T14:49:53;1.95;;;0.50;;
44981;SDS011;30716;41.740;-70.400;2023-06-04T14:52:19;1.55;;;0.35;;
44981;SDS011;30716;41.740;-70.400;2023-06-04T14:54:46;0.90;;;0.30;;
44981;SDS011;30716;41.740;-70.400;2023-06-04T14:57:12;0.77;;;0.40;;
44981;SDS011;30716;41.740;-70.400;2023-06-04T14:59:39;1.02;;;0.30;;
44981;SDS011;30716;41.740;-70.400;2023-06-04T15:02:08;0.40;;;0.22;;
44981;SDS011;30716;41.740;-70.400;2023-06-04T15:04:35;0.85;;;0.30;;
44981;SDS011;30716;41.740;-70.400;2023-06-04T15:07:09;1.50;;;0.40;;
44981;SDS011;30716;41.740;-70.400;2023-06-04T15:09:36;0.73;;;0.63;;
44981;SDS011;30716;41.740;-70.400;2023-06-04T15:12:02;2.28;;;0.80;;
44981;SDS011;30716;41.740;-70.400;2023-06-04T15:14:28;1.10;;;0.35;;
44981;SDS011;30716;41.740;-70.400;2023-06-04T15:16:55;3.10;;;0.77;;
44981;SDS011;30716;41.740;-70.400;2023-06-04T15:19:21;1.10;;;0.40;;
44981;SDS011;30716;41.740;-70.400;2023-06-04T15:21:47;1.30;;;0.20;;
44981;SDS011;30716;41.740;-70.400;2023-06-04T15:24:13;0.88;;;0.20;;
44981;SDS011;30716;41.740;-70.400;2023-06-04T15:26:40;0.82;;;0.30;;
44981;SDS011;30716;41.740;-70.400;2023-06-04T15:29:06;2.72;;;0.50;;
44981;SDS011;30716;41.740;-70.400;2023-06-04T15:31:32;1.80;;;0.30;;
44981;SDS011;30716;41.740;-70.400;2023-06-04T15:33:59;1.13;;;0.30;;
44981;SDS011;30716;41.740;-70.400;2023-06-04T15:36:25;2.47;;;0.40;;
44981;SDS011;30716;41.740;-70.400;2023-06-04T15:38:53;1.15;;;0.22;;
44981;SDS011;30716;41.740;-70.400;2023-06-04T15:41:19;0.70;;;0.30;;
44981;SDS011;30716;41.740;-70.400;2023-06-04T15:43:46;1.17;;;0.50;;
44981;SDS011;30716;41.740;-70.400;2023-06-04T15:46:13;2.58;;;0.52;;
44981;SDS011;30716;41.740;-70.400;2023-06-04T15:48:39;1.65;;;0.30;;
44981;SDS011;30716;41.740;-70.400;2023-06-04T15:51:05;1.70;;;0.15;;
44981;SDS011;30716;41.740;-70.400;2023-06-04T15:53:31;3.47;;;0.70;;
44981;SDS011;30716;41.740;-70.400;2023-06-04T15:55:57;0.82;;;0.43;;
44981;SDS011;30716;41.740;-70.400;2023-06-04T15:58:24;1.05;;;0.40;;
44981;SDS011;30716;41.740;-70.400;2023-06-04T16:00:50;0.85;;;0.30;;
44981;SDS011;30716;41.740;-70.400;2023-06-04T16:03:16;0.47;;;0.30;;
44981;SDS011;30716;41.740;-70.400;2023-06-04T16:05:43;1.35;;;0.32;;
44981;SDS011;30716;41.740;-70.400;2023-06-04T16:08:09;2.97;;;0.40;;
44981;SDS011;30716;41.740;-70.400;2023-06-04T16:10:35;0.77;;;0.30;;
44981;SDS011;30716;41.740;-70.400;2023-06-04T16:13:02;1.38;;;0.47;;
44981;SDS011;30716;41.740;-70.400;2023-06-04T16:15:28;1.00;;;0.32;;
44981;SDS011;30716;41.740;-70.400;2023-06-04T16:17:54;1.75;;;0.50;;
44981;SDS011;30716;41.740;-70.400;2023-06-04T16:20:20;1.17;;;0.40;;
44981;SDS011;30716;41.740;-70.400;2023-06-04T16:22:47;1.25;;;0.47;;
44981;SDS011;30716;41.740;-70.400;2023-06-04T16:25:14;1.30;;;0.52;;
44981;SDS011;30716;41.740;-70.400;2023-06-04T16:27:43;1.45;;;0.30;;
44981;SDS011;30716;41.740;-70.400;2023-06-04T16:30:13;1.23;;;0.30;;
44981;SDS011;30716;41.740;-70.400;2023-06-04T16:32:40;0.68;;;0.30;;
44981;SDS011;30716;41.740;-70.400;2023-06-04T16:35:06;1.52;;;0.40;;
44981;SDS011;30716;41.740;-70.400;2023-06-04T16:37:34;1.63;;;0.32;;
44981;SDS011;30716;41.740;-70.400;2023-06-04T16:40:02;1.58;;;0.40;;
44981;SDS011;30716;41.740;-70.400;2023-06-04T16:42:30;1.25;;;0.30;;
44981;SDS011;30716;41.740;-70.400;2023-06-04T16:44:57;1.58;;;0.40;;
44981;SDS011;30716;41.740;-70.400;2023-06-04T16:47:23;1.10;;;0.40;;
44981;SDS011;30716;41.740;-70.400;2023-06-04T16:49:50;1.85;;;0.40;;
44981;SDS011;30716;41.740;-70.400;2023-06-04T16:52:17;1.02;;;0.30;;
44981;SDS011;30716;41.740;-70.400;2023-06-04T16:54:43;1.30;;;0.55;;
44981;SDS011;30716;41.740;-70.400;2023-06-04T16:57:11;1.65;;;0.40;;
44981;SDS011;30716;41.740;-70.400;2023-06-04T16:59:40;2.70;;;0.50;;
44981;SDS011;30716;41.740;-70.400;2023-06-04T17:02:10;2.13;;;0.68;;
44981;SDS011;30716;41.740;-70.400;2023-06-04T17:04:37;1.27;;;0.50;;
44981;SDS011;30716;41.740;-70.400;2023-06-04T17:07:04;1.88;;;0.50;;
44981;SDS011;30716;41.740;-70.400;2023-06-04T17:09:30;2.20;;;0.50;;
44981;SDS011;30716;41.740;-70.400;2023-06-04T17:11:58;2.03;;;0.25;;
44981;SDS011;30716;41.740;-70.400;2023-06-04T17:14:24;1.73;;;0.40;;
44981;SDS011;30716;41.740;-70.400;2023-06-04T17:16:50;1.27;;;0.30;;
44981;SDS011;30716;41.740;-70.400;2023-06-04T17:19:17;2.35;;;0.40;;
44981;SDS011;30716;41.740;-70.400;2023-06-04T17:21:45;2.13;;;0.47;;
44981;SDS011;30716;41.740;-70.400;2023-06-04T17:24:12;1.48;;;0.50;;
44981;SDS011;30716;41.740;-70.400;2023-06-04T17:26:38;1.02;;;0.22;;
44981;SDS011;30716;41.740;-70.400;2023-06-04T17:29:04;0.55;;;0.17;;
44981;SDS011;30716;41.740;-70.400;2023-06-04T17:31:32;1.60;;;0.77;;
44981;SDS011;30716;41.740;-70.400;2023-06-04T17:33:58;1.23;;;0.40;;
44981;SDS011;30716;41.740;-70.400;2023-06-04T17:36:24;1.92;;;0.40;;
44981;SDS011;30716;41.740;-70.400;2023-06-04T17:38:52;2.25;;;0.50;;
44981;SDS011;30716;41.740;-70.400;2023-06-04T17:41:18;2.35;;;0.38;;
44981;SDS011;30716;41.740;-70.400;2023-06-04T17:43:44;3.67;;;0.57;;
44981;SDS011;30716;41.740;-70.400;2023-06-04T17:46:11;0.88;;;0.35;;
44981;SDS011;30716;41.740;-70.400;2023-06-04T17:48:38;1.20;;;0.40;;
44981;SDS011;30716;41.740;-70.400;2023-06-04T17:51:04;1.25;;;0.50;;
44981;SDS011;30716;41.740;-70.400;2023-06-04T17:53:31;1.00;;;0.40;;
44981;SDS011;30716;41.740;-70.400;2023-06-04T17:55:59;2.30;;;0.52;;
44981;SDS011;30716;41.740;-70.400;2023-06-04T17:58:25;1.65;;;0.50;;
44981;SDS011;30716;41.740;-70.400;2023-06-04T18:00:52;1.35;;;0.50;;
44981;SDS011;30716;41.740;-70.400;2023-06-04T18:03:18;2.05;;;0.55;;
44981;SDS011;30716;41.740;-70.400;2023-06-04T18:05:44;4.28;;;0.52;;
44981;SDS011;30716;41.740;-70.400;2023-06-04T18:08:10;2.70;;;0.60;;
44981;SDS011;30716;41.740;-70.400;2023-06-04T18:10:37;1.92;;;0.57;;
44981;SDS011;30716;41.740;-70.400;2023-06-04T18:13:03;3.22;;;0.75;;
44981;SDS011;30716;41.740;-70.400;2023-06-04T18:15:30;1.52;;;0.82;;
44981;SDS011;30716;41.740;-70.400;2023-06-04T18:17:56;2.65;;;0.80;;
44981;SDS011;30716;41.740;-70.400;2023-06-04T18:20:22;1.15;;;0.50;;
44981;SDS011;30716;41.740;-70.400;2023-06-04T18:22:49;1.27;;;0.50;;
44981;SDS011;30716;41.740;-70.400;2023-06-04T18:25:15;3.10;;;0.93;;
44981;SDS011;30716;41.740;-70.400;2023-06-04T18:27:42;2.33;;;0.65;;
44981;SDS011;30716;41.740;-70.400;2023-06-04T18:30:08;1.52;;;0.50;;
44981;SDS011;30716;41.740;-70.400;2023-06-04T18:32:35;3.35;;;0.70;;
44981;SDS011;30716;41.740;-70.400;2023-06-04T18:35:02;3.08;;;0.70;;
44981;SDS011;30716;41.740;-70.400;2023-06-04T18:37:28;2.28;;;0.50;;
44981;SDS011;30716;41.740;-70.400;2023-06-04T18:39:54;0.98;;;0.40;;
44981;SDS011;30716;41.740;-70.400;2023-06-04T18:42:21;2.60;;;0.80;;
44981;SDS011;30716;41.740;-70.400;2023-06-04T18:44:47;2.65;;;1.02;;
44981;SDS011;30716;41.740;-70.400;2023-06-04T18:47:13;1.42;;;0.55;;
44981;SDS011;30716;41.740;-70.400;2023-06-04T18:49:39;1.67;;;0.63;;
44981;SDS011;30716;41.740;-70.400;2023-06-04T18:52:06;1.30;;;0.45;;
44981;SDS011;30716;41.740;-70.400;2023-06-04T18:54:32;2.75;;;0.57;;
44981;SDS011;30716;41.740;-70.400;2023-06-04T18:56:58;2.00;;;0.80;;
44981;SDS011;30716;41.740;-70.400;2023-06-04T18:59:25;1.20;;;0.43;;
44981;SDS011;30716;41.740;-70.400;2023-06-04T19:01:51;1.63;;;0.57;;
44981;SDS011;30716;41.740;-70.400;2023-06-04T19:04:19;1.48;;;0.50;;
44981;SDS011;30716;41.740;-70.400;2023-06-04T19:06:46;2.22;;;0.88;;
44981;SDS011;30716;41.740;-70.400;2023-06-04T19:09:12;2.70;;;0.60;;
44981;SDS011;30716;41.740;-70.400;2023-06-04T19:11:38;2.10;;;0.47;;
44981;SDS011;30716;41.740;-70.400;2023-06-04T19:14:05;2.42;;;0.60;;
44981;SDS011;30716;41.740;-70.400;2023-06-04T19:16:31;2.17;;;0.63;;
44981;SDS011;30716;41.740;-70.400;2023-06-04T19:18:57;3.08;;;0.93;;
44981;SDS011;30716;41.740;-70.400;2023-06-04T19:21:24;3.05;;;0.95;;
44981;SDS011;30716;41.740;-70.400;2023-06-04T19:23:50;1.70;;;0.70;;
44981;SDS011;30716;41.740;-70.400;2023-06-04T19:26:16;1.73;;;0.50;;
44981;SDS011;30716;41.740;-70.400;2023-06-04T19:28:42;2.90;;;0.65;;
44981;SDS011;30716;41.740;-70.400;2023-06-04T19:31:10;3.05;;;0.85;;
44981;SDS011;30716;41.740;-70.400;2023-06-04T19:33:36;2.30;;;0.73;;
44981;SDS011;30716;41.740;-70.400;2023-06-04T19:36:02;2.40;;;0.60;;
44981;SDS011;30716;41.740;-70.400;2023-06-04T19:38:30;3.53;;;0.60;;
44981;SDS011;30716;41.740;-70.400;2023-06-04T19:40:56;1.50;;;0.57;;
44981;SDS011;30716;41.740;-70.400;2023-06-04T19:43:22;3.63;;;0.98;;
44981;SDS011;30716;41.740;-70.400;2023-06-04T19:45:48;2.03;;;0.63;;
44981;SDS011;30716;41.740;-70.400;2023-06-04T19:48:15;1.70;;;0.50;;
44981;SDS011;30716;41.740;-70.400;2023-06-04T19:50:42;4.40;;;1.52;;
44981;SDS011;30716;41.740;-70.400;2023-06-04T19:53:08;1.20;;;0.60;;
44981;SDS011;30716;41.740;-70.400;2023-06-04T19:55:34;1.45;;;0.73;;
44981;SDS011;30716;41.740;-70.400;2023-06-04T19:58:00;2.70;;;0.75;;
44981;SDS011;30716;41.740;-70.400;2023-06-04T20:00:27;1.95;;;0.57;;
44981;SDS011;30716;41.740;-70.400;2023-06-04T20:02:53;0.95;;;0.45;;
44981;SDS011;30716;41.740;-70.400;2023-06-04T20:05:19;1.20;;;0.52;;
44981;SDS011;30716;41.740;-70.400;2023-06-04T20:07:45;4.35;;;0.70;;
44981;SDS011;30716;41.740;-70.400;2023-06-04T20:10:12;1.67;;;0.50;;
44981;SDS011;30716;41.740;-70.400;2023-06-04T20:12:38;2.95;;;0.50;;
44981;SDS011;30716;41.740;-70.400;2023-06-04T20:15:04;1.48;;;0.40;;
44981;SDS011;30716;41.740;-70.400;2023-06-04T20:17:31;3.85;;;0.73;;
44981;SDS011;30716;41.740;-70.400;2023-06-04T20:19:58;1.15;;;0.40;;
44981;SDS011;30716;41.740;-70.400;2023-06-04T20:22:25;2.05;;;0.73;;
44981;SDS011;30716;41.740;-70.400;2023-06-04T20:24:51;2.38;;;0.40;;
44981;SDS011;30716;41.740;-70.400;2023-06-04T20:27:17;1.60;;;0.63;;
44981;SDS011;30716;41.740;-70.400;2023-06-04T20:29:43;2.10;;;0.55;;
44981;SDS011;30716;41.740;-70.400;2023-06-04T20:32:10;1.25;;;0.50;;
44981;SDS011;30716;41.740;-70.400;2023-06-04T20:34:36;1.77;;;0.57;;
44981;SDS011;30716;41.740;-70.400;2023-06-04T20:37:02;1.58;;;0.50;;
44981;SDS011;30716;41.740;-70.400;2023-06-04T20:39:29;1.65;;;0.47;;
44981;SDS011;30716;41.740;-70.400;2023-06-04T20:41:56;2.53;;;0.75;;
44981;SDS011;30716;41.740;-70.400;2023-06-04T20:44:22;2.65;;;0.95;;
44981;SDS011;30716;41.740;-70.400;2023-06-04T20:46:49;1.98;;;0.50;;
44981;SDS011;30716;41.740;-70.400;2023-06-04T20:49:15;1.58;;;0.65;;
44981;SDS011;30716;41.740;-70.400;2023-06-04T20:51:42;2.67;;;0.60;;
44981;SDS011;30716;41.740;-70.400;2023-06-04T20:54:08;1.42;;;0.50;;
44981;SDS011;30716;41.740;-70.400;2023-06-04T20:56:35;2.17;;;0.70;;
44981;SDS011;30716;41.740;-70.400;2023-06-04T20:59:01;1.73;;;0.60;;
44981;SDS011;30716;41.740;-70.400;2023-06-04T21:01:27;3.13;;;0.70;;
44981;SDS011;30716;41.740;-70.400;2023-06-04T21:03:53;1.80;;;0.82;;
44981;SDS011;30716;41.740;-70.400;2023-06-04T21:06:19;1.77;;;0.63;;
44981;SDS011;30716;41.740;-70.400;2023-06-04T21:08:46;3.15;;;1.17;;